Station Historical Data
Daily Summary for May 29, 2012 Units:  Metric    English   Both
« Previous Day
Next Day »
Daily Weekly Monthly Yearly Custom
  High: Low: Average:
Temperature: 31 °C 18.3 °C 24.8 °C
Dew Point: 22.6 °C 17 °C 20.4 °C
Humidity: 95% 54% 78%
Wind Speed: 38.6km/h 0km/h 4.8km/h
Wind Gust: 49.9km/h - -
Wind- - South
Pressure: 1012.1 hPa 1007 hPa -
Precipitation: 7.87 mm    
Historical Graphs
 
 
Tabular Data for May 29, 2012
Time Temperature Dew Point Pressure Wind Wind Speed Wind Gust Humidity Rainfall Rate (Hourly) Conditions
00:00 24.8 °C 21.1 °C 1010 hPa ESE 1.6 km/h 1.6 km/h 80% 0 mm
00:01 24.8 °C 21.3 °C 1010 hPa ESE 1.6 km/h 1.6 km/h 81% 0 mm
00:06 24.8 °C 21.3 °C 1010 hPa ESE 1.6 km/h 1.6 km/h 81% 0 mm
00:11 24.4 °C 20.9 °C 1010 hPa Calm     81% 0 mm
00:16 23.8 °C 20.7 °C 1010 hPa Calm     83% 0 mm
00:21 23.3 °C 20.7 °C 1010 hPa Calm     85% 0 mm
00:26 23.3 °C 20.8 °C 1010 hPa Calm   1.6 km/h 86% 0 mm
00:31 23.2 °C 20.7 °C 1010 hPa Calm   1.6 km/h 86% 0 mm
00:36 23.2 °C 20.9 °C 1010 hPa NNE 1.6 km/h 1.6 km/h 87% 0 mm
00:41 23.3 °C 20.9 °C 1010 hPa Calm     86% 0 mm
00:46 23.2 °C 20.7 °C 1010 hPa Calm     86% 0 mm
00:51 23.1 °C 20.8 °C 1010 hPa Calm     87% 0 mm
00:56 22.9 °C 20.7 °C 1010 hPa ESE 3.2 km/h 3.2 km/h 87% 0 mm
01:01 23.6 °C 20.9 °C 1010 hPa ESE 3.2 km/h 3.2 km/h 85% 0 mm
01:06 23.9 °C 20.8 °C 1009.7 hPa Calm   3.2 km/h 83% 0 mm
01:11 23.8 °C 20.8 °C 1010 hPa East 1.6 km/h 3.2 km/h 83% 0 mm
01:16 23.9 °C 20.6 °C 1010 hPa ESE 1.6 km/h 1.6 km/h 82% 0 mm
01:21 23.8 °C 20.6 °C 1010 hPa ESE 1.6 km/h 1.6 km/h 82% 0 mm
01:27 23.9 °C 20.7 °C 1010 hPa ESE 1.6 km/h 1.6 km/h 82% 0 mm
01:32 24 °C 20.7 °C 1010 hPa ESE 1.6 km/h 1.6 km/h 82% 0 mm
01:37 23.9 °C 20.9 °C 1010 hPa SE 4.8 km/h 4.8 km/h 83% 0 mm
01:42 23.9 °C 21.1 °C 1010 hPa SE 3.2 km/h 4.8 km/h 84% 0 mm
01:47 24 °C 21.1 °C 1010 hPa ESE 4.8 km/h 4.8 km/h 84% 0 mm
01:52 23.9 °C 20.9 °C 1010 hPa SE 4.8 km/h 4.8 km/h 83% 0 mm
01:57 24 °C 20.7 °C 1009.7 hPa ESE 4.8 km/h 6.4 km/h 82% 0 mm
02:02 24.2 °C 20.7 °C 1009.7 hPa ESE 3.2 km/h 4.8 km/h 81% 0 mm
02:07 24.3 °C 20.6 °C 1009.7 hPa ESE 3.2 km/h 4.8 km/h 80% 0 mm
02:12 24.3 °C 20.6 °C 1009.7 hPa ESE 3.2 km/h 4.8 km/h 80% 0 mm
02:17 24.3 °C 20.4 °C 1009.4 hPa ESE 3.2 km/h 6.4 km/h 79% 0 mm
02:22 24.4 °C 20.3 °C 1009.4 hPa ESE 4.8 km/h 6.4 km/h 78% 0 mm
02:27 24.2 °C 20.5 °C 1009.4 hPa ESE 4.8 km/h 4.8 km/h 80% 0 mm
02:32 24.1 °C 20.4 °C 1009.4 hPa ESE 4.8 km/h 4.8 km/h 80% 0 mm
02:37 24.1 °C 20.2 °C 1009.4 hPa ESE 4.8 km/h 4.8 km/h 79% 0 mm
02:42 24.1 °C 20.4 °C 1009.4 hPa ESE 4.8 km/h 8 km/h 80% 0 mm
02:47 23.8 °C 20.4 °C 1009.7 hPa ESE 6.4 km/h 9.7 km/h 81% 0 mm
02:52 23.6 °C 20.5 °C 1009.4 hPa ESE 4.8 km/h 8 km/h 83% 0 mm
02:57 23.5 °C 20.4 °C 1009.4 hPa ESE 4.8 km/h 9.7 km/h 83% 0 mm
03:02 23.6 °C 20.3 °C 1009.4 hPa SE 6.4 km/h 8 km/h 82% 0 mm
03:07 23.6 °C 20.4 °C 1009.4 hPa ESE 4.8 km/h 9.7 km/h 82% 0 mm
03:12 23.7 °C 20.2 °C 1009.7 hPa ESE 6.4 km/h 9.7 km/h 81% 0 mm
03:17 23.5 °C 20.2 °C 1009.7 hPa ESE 4.8 km/h 6.4 km/h 82% 0 mm
03:22 23.3 °C 20.4 °C 1009.7 hPa ESE 3.2 km/h 4.8 km/h 84% 0 mm
03:27 23.1 °C 20.3 °C 1009.7 hPa SE 3.2 km/h 6.4 km/h 84% 0 mm
03:32 23 °C 20.2 °C 1009.7 hPa SE 3.2 km/h 6.4 km/h 84% 0 mm
03:37 22.9 °C 20.1 °C 1009.7 hPa ESE 6.4 km/h 9.7 km/h 84% 0 mm
03:42 23 °C 19.9 °C 1009.7 hPa ESE 6.4 km/h 9.7 km/h 83% 0 mm
03:47 23.1 °C 19.9 °C 1009.7 hPa SE 3.2 km/h 9.7 km/h 82% 0 mm
03:52 23.3 °C 19.8 °C 1009.7 hPa SE 9.7 km/h 9.7 km/h 81% 0 mm
03:57 23.4 °C 19.8 °C 1009.7 hPa SE 4.8 km/h 12.9 km/h 80% 0 mm
04:02 23.4 °C 19.7 °C 1009.7 hPa SE 6.4 km/h 8 km/h 80% 0 mm
04:07 23.4 °C 19.8 °C 1009.7 hPa SE 6.4 km/h 6.4 km/h 80% 0 mm
04:12 23.4 °C 19.8 °C 1009.7 hPa SE 4.8 km/h 11.3 km/h 80% 0 mm
04:18 23.3 °C 19.7 °C 1009.7 hPa ESE 4.8 km/h 4.8 km/h 80% 0 mm
04:23 23.3 °C 19.6 °C 1009.7 hPa ESE 4.8 km/h 4.8 km/h 80% 0 mm
04:27 23.2 °C 19.7 °C 1009.7 hPa SSE 3.2 km/h 3.2 km/h 81% 0 mm
04:32 23.1 °C 19.6 °C 1010 hPa Calm   1.6 km/h 81% 0 mm
04:37 22.9 °C 19.5 °C 1010 hPa Calm   3.2 km/h 81% 0 mm
04:43 22.7 °C 19.5 °C 1010 hPa South 1.6 km/h 1.6 km/h 82% 0 mm
04:48 22.6 °C 19.6 °C 1010 hPa SE 1.6 km/h 3.2 km/h 83% 0 mm
04:53 22.7 °C 19.6 °C 1010 hPa ESE 3.2 km/h 3.2 km/h 83% 0 mm
04:58 22.6 °C 19.6 °C 1010 hPa ESE 3.2 km/h 4.8 km/h 83% 0 mm
05:04 22.5 °C 19.5 °C 1010.4 hPa ESE 1.6 km/h 1.6 km/h 83% 0 mm
05:09 22.5 °C 19.5 °C 1010 hPa ESE 1.6 km/h 3.2 km/h 83% 0 mm
05:13 22.4 °C 19.4 °C 1010.4 hPa SE 3.2 km/h 3.2 km/h 83% 0 mm
05:19 22.4 °C 19.6 °C 1010.4 hPa SE 1.6 km/h 1.6 km/h 84% 0 mm
05:24 22.3 °C 19.5 °C 1010.4 hPa ESE 4.8 km/h 4.8 km/h 84% 0 mm
05:29 22.4 °C 19.6 °C 1010.4 hPa SE 4.8 km/h 6.4 km/h 84% 0 mm
05:34 22.4 °C 19.6 °C 1010.4 hPa SE 3.2 km/h 9.7 km/h 84% 0 mm
05:39 22.5 °C 19.5 °C 1010.4 hPa SE 3.2 km/h 8 km/h 83% 0 mm
05:44 22.4 °C 19.6 °C 1010.4 hPa ESE 4.8 km/h 6.4 km/h 84% 0 mm
05:49 22.3 °C 19.4 °C 1010.4 hPa SE 4.8 km/h 6.4 km/h 84% 0 mm
05:54 22.2 °C 19.6 °C 1010.4 hPa SE 1.6 km/h 6.4 km/h 85% 0 mm
05:59 22.1 °C 19.4 °C 1010.4 hPa ESE 8 km/h 8 km/h 85% 0 mm
06:04 22.1 °C 19.4 °C 1010.4 hPa SE 9.7 km/h 9.7 km/h 85% 0 mm
06:09 22 °C 19.4 °C 1010.7 hPa ESE 3.2 km/h 4.8 km/h 85% 0 mm
06:14 21.9 °C 19.3 °C 1010.7 hPa SE 3.2 km/h 4.8 km/h 85% 0 mm
06:19 21.9 °C 19.4 °C 1010.7 hPa SE 4.8 km/h 6.4 km/h 86% 0 mm
06:24 21.9 °C 19.4 °C 1010.7 hPa SE 4.8 km/h 9.7 km/h 86% 0 mm
06:29 21.9 °C 19.4 °C 1010.7 hPa SE 6.4 km/h 8 km/h 86% 0 mm
06:34 21.9 °C 19.5 °C 1010.7 hPa SE 8 km/h 11.3 km/h 86% 0 mm
06:39 21.9 °C 19.5 °C 1010.7 hPa SE 6.4 km/h 11.3 km/h 86% 0 mm
06:44 22 °C 19.6 °C 1010.7 hPa SE 8 km/h 11.3 km/h 86% 0 mm
06:49 21.9 °C 19.5 °C 1010.7 hPa SE 6.4 km/h 11.3 km/h 86% 0 mm
06:54 22 °C 19.6 °C 1010.4 hPa SE 8 km/h 11.3 km/h 86% 0 mm
06:59 21.9 °C 19.5 °C 1010.7 hPa SE 6.4 km/h 14.5 km/h 86% 0 mm
07:04 21.9 °C 19.5 °C 1010.4 hPa SE 11.3 km/h 12.9 km/h 86% 0 mm
07:09 21.9 °C 19.7 °C 1010.7 hPa ESE 9.7 km/h 14.5 km/h 87% 0 mm
07:14 22 °C 19.7 °C 1010.7 hPa SE 8 km/h 12.9 km/h 87% 0 mm
07:19 22.1 °C 19.6 °C 1010.4 hPa SE 9.7 km/h 12.9 km/h 86% 0 mm
07:24 22.1 °C 19.7 °C 1010.4 hPa SE 8 km/h 12.9 km/h 86% 0 mm
07:29 22.2 °C 19.9 °C 1010.4 hPa ESE 11.3 km/h 14.5 km/h 87% 0 mm
07:34 22.2 °C 19.9 °C 1010.4 hPa SE 8 km/h 11.3 km/h 87% 0 mm
07:39 22.2 °C 19.9 °C 1010.7 hPa ESE 6.4 km/h 11.3 km/h 87% 0 mm
07:44 22.2 °C 19.9 °C 1010.7 hPa SE 9.7 km/h 14.5 km/h 87% 0 mm
07:49 22.3 °C 20.1 °C 1010.7 hPa ESE 8 km/h 16.1 km/h 87% 0 mm
07:54 22.4 °C 20.2 °C 1010.7 hPa ESE 11.3 km/h 14.5 km/h 87% 0 mm
07:59 22.7 °C 20.2 °C 1010.7 hPa East 4.8 km/h 12.9 km/h 86% 0 mm
08:04 22.9 °C 20.4 °C 1010.7 hPa ESE 9.7 km/h 12.9 km/h 86% 0 mm
08:09 23.1 °C 20.6 °C 1010.7 hPa ESE 6.4 km/h 11.3 km/h 86% 0 mm
08:14 23.3 °C 20.7 °C 1011.1 hPa SE 8 km/h 12.9 km/h 85% 0 mm
08:19 23.4 °C 20.7 °C 1011.1 hPa SE 9.7 km/h 16.1 km/h 85% 0 mm
08:24 23.3 °C 20.5 °C 1011.1 hPa SE 8 km/h 12.9 km/h 84% 0 mm
08:29 23.3 °C 20.6 °C 1011.1 hPa ESE 11.3 km/h 12.9 km/h 85% 0 mm
08:35 23.2 °C 20.6 °C 1010.7 hPa ESE 11.3 km/h 17.7 km/h 85% 0 mm
08:40 23.2 °C 20.5 °C 1011.1 hPa ESE 8 km/h 12.9 km/h 85% 0 mm
08:45 23.2 °C 20.7 °C 1011.1 hPa ESE 14.5 km/h 16.1 km/h 86% 0 mm
08:50 23.2 °C 20.6 °C 1011.1 hPa SE 11.3 km/h 17.7 km/h 85% 0 mm
08:55 23.2 °C 20.6 °C 1011.4 hPa SSE 12.9 km/h 14.5 km/h 85% 0 mm
09:00 23.2 °C 20.7 °C 1011.1 hPa ESE 8 km/h 12.9 km/h 86% 0 mm
09:05 23.3 °C 20.8 °C 1011.1 hPa SE 9.7 km/h 14.5 km/h 86% 0 mm
09:10 23.3 °C 20.9 °C 1011.1 hPa SE 9.7 km/h 17.7 km/h 86% 0 mm
09:15 23.3 °C 20.9 °C 1011.1 hPa SE 8 km/h 14.5 km/h 86% 0 mm
09:20 23.3 °C 20.9 °C 1011.1 hPa SE 14.5 km/h 16.1 km/h 86% 0 mm
09:25 23.4 °C 20.9 °C 1011.4 hPa SE 4.8 km/h 11.3 km/h 86% 0 mm
09:30 23.4 °C 21 °C 1011.1 hPa SE 8 km/h 12.9 km/h 86% 0 mm
09:35 23.5 °C 21 °C 1011.1 hPa SE 4.8 km/h 9.7 km/h 86% 0 mm
09:40 23.6 °C 21.1 °C 1011.1 hPa South 6.4 km/h 9.7 km/h 86% 0 mm
09:45 23.6 °C 21.1 °C 1011.1 hPa SSE 8 km/h 12.9 km/h 86% 0 mm
09:46 23.6 °C 21.1 °C 1011.1 hPa SSE 6.4 km/h 9.7 km/h 86% 0 mm
09:51 23.6 °C 21.1 °C 1011.4 hPa SSE 11.3 km/h 11.3 km/h 86% 0 mm
09:56 23.6 °C 21.1 °C 1011.4 hPa SW 6.4 km/h 8 km/h 86% 0 mm
10:01 23.6 °C 21.1 °C 1011.7 hPa WNW 6.4 km/h 12.9 km/h 86% 0 mm
10:06 23.4 °C 21.2 °C 1012.1 hPa WNW 4.8 km/h 9.7 km/h 87% 0 mm
10:11 23.4 °C 21.3 °C 1011.7 hPa WNW 6.4 km/h 9.7 km/h 88% 0 mm
10:16 23.2 °C 20.9 °C 1011.7 hPa NW 8 km/h 16.1 km/h 87% 0 mm
10:21 23.1 °C 20.9 °C 1011.7 hPa West 4.8 km/h 4.8 km/h 88% 0 mm
10:26 23.2 °C 21.1 °C 1011.7 hPa WSW 1.6 km/h 4.8 km/h 88% 0 mm
10:31 23.2 °C 21.1 °C 1011.4 hPa NW 1.6 km/h 9.7 km/h 88% 0 mm
10:36 23.4 °C 21.3 °C 1011.4 hPa West 3.2 km/h 8 km/h 88% 0 mm
10:41 23.4 °C 21.2 °C 1011.4 hPa WNW 4.8 km/h 6.4 km/h 87% 0 mm
10:46 23.4 °C 21.2 °C 1011.4 hPa West 4.8 km/h 8 km/h 87% 0 mm
10:51 23.7 °C 21.2 °C 1011.1 hPa WNW 3.2 km/h 3.2 km/h 86% 0 mm
10:56 24 °C 21.3 °C 1011.1 hPa WSW 3.2 km/h 4.8 km/h 85% 0 mm
11:01 24.2 °C 21.6 °C 1011.4 hPa SW 4.8 km/h 4.8 km/h 85% 0 mm
11:06 24.6 °C 21.5 °C 1011.1 hPa ESE 1.6 km/h 4.8 km/h 83% 0 mm
11:12 24.8 °C 21.5 °C 1011.1 hPa SW 1.6 km/h 4.8 km/h 82% 0 mm
11:17 25.1 °C 21.8 °C 1011.1 hPa WNW 3.2 km/h 3.2 km/h 82% 0 mm
11:22 25.1 °C 21.6 °C 1011.1 hPa SSE 4.8 km/h 6.4 km/h 81% 0 mm
11:27 25.2 °C 21.6 °C 1011.1 hPa SW 3.2 km/h 9.7 km/h 80% 0 mm
11:32 25.3 °C 21.8 °C 1011.1 hPa SW 4.8 km/h 6.4 km/h 81% 0 mm
11:37 25.5 °C 21.8 °C 1011.1 hPa WSW 4.8 km/h 8 km/h 80% 0 mm
11:42 25.6 °C 21.9 °C 1011.1 hPa SSW 3.2 km/h 6.4 km/h 80% 0 mm
11:47 25.8 °C 21.4 °C 1011.1 hPa SSE 4.8 km/h 6.4 km/h 77% 0 mm
11:52 26 °C 21.9 °C 1011.1 hPa SW 6.4 km/h 8 km/h 78% 0 mm
11:57 26 °C 21.4 °C 1010.7 hPa South 4.8 km/h 6.4 km/h 76% 0 mm
12:02 26.2 °C 21.4 °C 1010.7 hPa SW 3.2 km/h 4.8 km/h 75% 0 mm
12:07 26.3 °C 22 °C 1010.7 hPa SSW 4.8 km/h 8 km/h 77% 0 mm
12:12 26.4 °C 21.2 °C 1010.7 hPa SSW 4.8 km/h 12.9 km/h 73% 0 mm
12:17 26.4 °C 21.2 °C 1010.7 hPa WNW 9.7 km/h 9.7 km/h 73% 0 mm
12:22 26.2 °C 21.4 °C 1010.4 hPa WSW 1.6 km/h 8 km/h 75% 0 mm
12:27 26.4 °C 21.8 °C 1010.4 hPa WSW 6.4 km/h 6.4 km/h 76% 0 mm
12:32 26.5 °C 21.7 °C 1010.4 hPa SSW 1.6 km/h 4.8 km/h 75% 0 mm
12:37 27 °C 22 °C 1010.4 hPa SSW 6.4 km/h 8 km/h 74% 0 mm
12:42 26.8 °C 21.6 °C 1010.4 hPa WSW 1.6 km/h 8 km/h 73% 0 mm
12:47 27 °C 22.2 °C 1010.4 hPa West 3.2 km/h 8 km/h 75% 0 mm
12:52 26.8 °C 21.8 °C 1010.4 hPa SW 9.7 km/h 9.7 km/h 74% 0 mm
12:57 26.9 °C 21.9 °C 1010.4 hPa SW 4.8 km/h 8 km/h 74% 0 mm
13:02 27.2 °C 21.4 °C 1010 hPa ENE 3.2 km/h 6.4 km/h 71% 0 mm
13:07 27.5 °C 22.2 °C 1010 hPa Calm   6.4 km/h 73% 0 mm
13:12 27.7 °C 21.8 °C 1010 hPa NE 1.6 km/h 6.4 km/h 70% 0 mm
13:17 27.7 °C 21.8 °C 1010 hPa WNW 3.2 km/h 9.7 km/h 70% 0 mm
13:22 27.4 °C 21.5 °C 1010 hPa WNW 4.8 km/h 8 km/h 70% 0 mm
13:27 27.6 °C 21.9 °C 1010 hPa WSW 1.6 km/h 8 km/h 71% 0 mm
13:32 27.9 °C 21.7 °C 1010 hPa Calm   4.8 km/h 69% 0 mm
13:37 28.4 °C 22.4 °C 1010 hPa Calm   3.2 km/h 70% 0 mm
13:42 28.4 °C 22 °C 1010 hPa NNE 1.6 km/h 4.8 km/h 68% 0 mm
13:48 28.2 °C 22 °C 1009.7 hPa North 3.2 km/h 6.4 km/h 69% 0 mm
13:53 28.2 °C 22.2 °C 1009.7 hPa Calm   6.4 km/h 70% 0 mm
13:58 28.4 °C 22.2 °C 1009.7 hPa SSW 1.6 km/h 4.8 km/h 69% 0 mm
14:03 28.7 °C 21.9 °C 1009.7 hPa Calm   4.8 km/h 67% 0 mm
14:08 28.8 °C 22.1 °C 1009.7 hPa WNW 1.6 km/h 6.4 km/h 67% 0 mm
14:13 29.1 °C 22.1 °C 1009.4 hPa SE 1.6 km/h 4.8 km/h 66% 0 mm
14:18 29.2 °C 22.2 °C 1009.4 hPa SSW 3.2 km/h 8 km/h 66% 0 mm
14:23 29.2 °C 21.9 °C 1009.4 hPa ENE 1.6 km/h 6.4 km/h 65% 0 mm
14:28 29.1 °C 22.1 °C 1009.4 hPa Calm   6.4 km/h 66% 0 mm
14:33 29.5 °C 21.7 °C 1009.4 hPa ESE 1.6 km/h 3.2 km/h 63% 0 mm
14:38 29.8 °C 21.5 °C 1009 hPa Calm   4.8 km/h 61% 0 mm
14:43 30.1 °C 21.5 °C 1009 hPa Calm   1.6 km/h 60% 0 mm
14:48 30.1 °C 21.4 °C 1009 hPa NE 6.4 km/h 8 km/h 60% 0 mm
14:53 29.7 °C 21.3 °C 1009 hPa NE 1.6 km/h 6.4 km/h 61% 0 mm
14:58 29.8 °C 22.6 °C 1009 hPa NE 4.8 km/h 4.8 km/h 65% 0 mm
15:03 29.8 °C 22.1 °C 1009 hPa NNW 3.2 km/h 9.7 km/h 63% 0 mm
15:08 29.9 °C 22.4 °C 1008.7 hPa NE 8 km/h 8 km/h 64% 0 mm
15:13 29.8 °C 22.3 °C 1008.7 hPa WNW 4.8 km/h 8 km/h 64% 0 mm
15:18 29.8 °C 21.7 °C 1008.7 hPa North 3.2 km/h 11.3 km/h 62% 0 mm
15:23 29.7 °C 20.9 °C 1008.7 hPa NE 1.6 km/h 9.7 km/h 59% 0 mm
15:28 29.9 °C 21.3 °C 1008.7 hPa Calm   6.4 km/h 60% 0 mm
15:33 30.2 °C 21.6 °C 1008.4 hPa SE 1.6 km/h 4.8 km/h 60% 0 mm
15:39 30.5 °C 21.3 °C 1008.4 hPa NNW 1.6 km/h 6.4 km/h 58% 0 mm
15:44 30.6 °C 21.3 °C 1008.4 hPa North 1.6 km/h 6.4 km/h 58% 0 mm
15:49 30.6 °C 20.8 °C 1008.4 hPa NNE 4.8 km/h 9.7 km/h 56% 0 mm
15:54 30.4 °C 20.3 °C 1008.4 hPa North 8 km/h 11.3 km/h 55% 0 mm
15:59 30.2 °C 21.1 °C 1008.4 hPa NNE 4.8 km/h 8 km/h 58% 0 mm
16:04 30.3 °C 20.9 °C 1008.4 hPa SSE 1.6 km/h 4.8 km/h 57% 0 mm
16:09 30.7 °C 21.2 °C 1008.4 hPa WSW 4.8 km/h 6.4 km/h 57% 0 mm
16:14 30.4 °C 20.7 °C 1008 hPa NNW 3.2 km/h 6.4 km/h 56% 0 mm
16:16 30.3 °C 20.8 °C 1008 hPa WNW 3.2 km/h 6.4 km/h 57% 0 mm
16:21 30.1 °C 20.4 °C 1008.4 hPa WNW 3.2 km/h 6.4 km/h 56% 0 mm
16:22 30.1 °C 20.7 °C 1008 hPa NNW 3.2 km/h 4.8 km/h 57% 0 mm
16:27 30.4 °C 21.3 °C 1008 hPa NE 8 km/h 8 km/h 58% 0 mm
16:32 30.4 °C 21.3 °C 1008 hPa NNW 4.8 km/h 9.7 km/h 58% 0 mm
16:37 30.6 °C 20.8 °C 1008 hPa NE 6.4 km/h 11.3 km/h 56% 0 mm
16:39 30.6 °C 20.8 °C 1008 hPa NNW 1.6 km/h 11.3 km/h 56% 0 mm
16:42 30.7 °C 21.4 °C 1008 hPa WNW 6.4 km/h 6.4 km/h 58% 0 mm
16:47 30.8 °C 21 °C 1008 hPa NW 1.6 km/h 4.8 km/h 56% 0 mm
16:52 30.9 °C 20.5 °C 1008 hPa WNW 8 km/h 12.9 km/h 54% 0 mm
16:57 30.8 °C 21 °C 1008 hPa WNW 6.4 km/h 9.7 km/h 56% 0 mm
17:02 30.8 °C 20.7 °C 1008 hPa NW 4.8 km/h 8 km/h 55% 0 mm
17:07 30.9 °C 20.8 °C 1008 hPa WNW 4.8 km/h 9.7 km/h 55% 0 mm
17:12 31 °C 20.9 °C 1007.7 hPa West 8 km/h 12.9 km/h 55% 0 mm
17:17 30.8 °C 20.7 °C 1007.7 hPa WNW 9.7 km/h 11.3 km/h 55% 0 mm
17:22 30.4 °C 20.1 °C 1007.7 hPa NW 9.7 km/h 17.7 km/h 54% 0 mm
17:27 30.5 °C 21.8 °C 1007.7 hPa WSW 3.2 km/h 6.4 km/h 60% 0 mm
17:32 30.7 °C 21.2 °C 1007.7 hPa WSW 6.4 km/h 12.9 km/h 57% 0 mm
17:37 30.7 °C 20.7 °C 1007.7 hPa NW 8 km/h 12.9 km/h 55% 0 mm
17:42 30.7 °C 21.2 °C 1007.3 hPa West 8 km/h 8 km/h 57% 0 mm
17:43 30.6 °C 20.8 °C 1007.3 hPa NNW 9.7 km/h 9.7 km/h 56% 0 mm
17:48 30.3 °C 21.1 °C 1007.3 hPa WSW 8 km/h 9.7 km/h 58% 0 mm
17:53 30.1 °C 21.2 °C 1007.3 hPa WNW 6.4 km/h 8 km/h 59% 0 mm
17:58 30 °C 21.4 °C 1007.3 hPa West 4.8 km/h 4.8 km/h 60% 0 mm
18:03 30.2 °C 21.9 °C 1007.3 hPa WNW 4.8 km/h 4.8 km/h 61% 0 mm
18:08 30.2 °C 21.6 °C 1007.7 hPa WSW 3.2 km/h 6.4 km/h 60% 0 mm
18:13 30.1 °C 21.4 °C 1007.3 hPa WNW 6.4 km/h 8 km/h 60% 0 mm
18:16 30.1 °C 20.7 °C 1007.3 hPa WNW 6.4 km/h 8 km/h 57% 0 mm
18:21 30.3 °C 22.2 °C 1007.3 hPa WNW 9.7 km/h 9.7 km/h 62% 0 mm
18:26 30.2 °C 21.1 °C 1007.3 hPa NW 4.8 km/h 11.3 km/h 58% 0 mm
18:31 30.3 °C 21.2 °C 1007.3 hPa WNW 3.2 km/h 9.7 km/h 58% 0 mm
18:36 30.2 °C 20.7 °C 1007.3 hPa NW 8 km/h 12.9 km/h 57% 0 mm
18:41 30.1 °C 20.9 °C 1007.3 hPa WNW 6.4 km/h 8 km/h 58% 0 mm
18:42 30.1 °C 20.9 °C 1007.3 hPa WNW 6.4 km/h 9.7 km/h 58% 0 mm
18:47 29.9 °C 21 °C 1007.3 hPa WNW 6.4 km/h 9.7 km/h 59% 0 mm
18:53 29.7 °C 21.9 °C 1007.3 hPa NW 1.6 km/h 6.4 km/h 63% 0 mm
18:58 29.7 °C 21.6 °C 1007.3 hPa NW 4.8 km/h 6.4 km/h 62% 0 mm
19:03 29.4 °C 21.7 °C 1007.3 hPa NW 3.2 km/h 6.4 km/h 63% 0 mm
19:08 29.2 °C 21.4 °C 1007 hPa WNW 4.8 km/h 4.8 km/h 63% 0 mm
19:13 28.9 °C 21.4 °C 1007 hPa WNW 3.2 km/h 4.8 km/h 64% 0 mm
19:18 28.8 °C 21.6 °C 1007 hPa NW 4.8 km/h 4.8 km/h 65% 0 mm
19:23 28.8 °C 21.6 °C 1007 hPa WNW 1.6 km/h 4.8 km/h 65% 0 mm
19:28 29 °C 22 °C 1007 hPa WNW 1.6 km/h 4.8 km/h 66% 0 mm
19:33 29.2 °C 21.7 °C 1007 hPa Calm   3.2 km/h 64% 0 mm
19:38 29.3 °C 21.8 °C 1007.3 hPa WNW 1.6 km/h 3.2 km/h 64% 0 mm
19:43 29.4 °C 22.4 °C 1007 hPa Calm   1.6 km/h 66% 0 mm
19:48 29.5 °C 22 °C 1007.3 hPa WNW 1.6 km/h 1.6 km/h 64% 0 mm
19:53 29.3 °C 22.1 °C 1007.3 hPa NW 1.6 km/h 3.2 km/h 65% 0 mm
19:58 29 °C 21.8 °C 1007.3 hPa WNW 1.6 km/h 3.2 km/h 65% 0 mm
20:03 28.6 °C 22.1 °C 1007.3 hPa NW 1.6 km/h 1.6 km/h 68% 0 mm
20:08 28.2 °C 22 °C 1007.7 hPa NW 1.6 km/h 1.6 km/h 69% 0 mm
20:13 27.9 °C 22.4 °C 1007.7 hPa NW 1.6 km/h 3.2 km/h 72% 0 mm
20:18 27.4 °C 22.3 °C 1008 hPa NNW 3.2 km/h 3.2 km/h 74% 0 mm
20:23 26.8 °C 22.4 °C 1009 hPa North 19.3 km/h 19.3 km/h 77% 0 mm
20:28 24.2 °C 18.1 °C 1009.4 hPa NNW 38.6 km/h 49.9 km/h 69% 0 mm
20:33 22 °C 18.2 °C 1010 hPa NW 24.1 km/h 35.4 km/h 79% 0 mm
20:38 20 °C 17.6 °C 1010 hPa NW 22.5 km/h 45.1 km/h 86% 0 mm
20:43 19.2 °C 17 °C 1010 hPa North 19.3 km/h 48.3 km/h 87% 0 mm
20:48 19.2 °C 17.2 °C 1010 hPa NW 11.3 km/h 27.4 km/h 88% 0 mm
20:53 19.2 °C 17.1 °C 1010 hPa North 6.4 km/h 16.1 km/h 88% 0 mm
20:58 19.1 °C 17.3 °C 1009.7 hPa NNW 11.3 km/h 14.5 km/h 89% 10.16 mm
21:03 18.9 °C 17.3 °C 1009.7 hPa North 11.3 km/h 11.3 km/h 90% 8.64 mm
21:08 18.8 °C 17.3 °C 1009.7 hPa North 14.5 km/h 16.1 km/h 91% 7.11 mm
21:13 18.7 °C 17.3 °C 1009.4 hPa NNE 12.9 km/h 12.9 km/h 92% 5.33 mm
21:19 18.6 °C 17.3 °C 1009 hPa ENE 8 km/h 12.9 km/h 92% 32.26 mm
21:24 18.6 °C 17.3 °C 1009 hPa NE 11.3 km/h 14.5 km/h 92% 4.06 mm
21:29 18.6 °C 17.3 °C 1009.4 hPa SE 1.6 km/h 6.4 km/h 92% 2.03 mm
21:34 18.6 °C 17.4 °C 1009.7 hPa North 1.6 km/h 3.2 km/h 93% 3.05 mm
21:39 18.6 °C 17.4 °C 1009.4 hPa South 6.4 km/h 8 km/h 93% 7.62 mm
21:44 18.6 °C 17.4 °C 1009.4 hPa ESE 8 km/h 11.3 km/h 93% 2.29 mm
21:49 18.6 °C 17.4 °C 1009 hPa NNE 4.8 km/h 6.4 km/h 93% 1.27 mm
21:54 18.6 °C 17.4 °C 1009 hPa NNE 3.2 km/h 8 km/h 93% 0 mm
21:59 18.5 °C 17.3 °C 1009 hPa NW 1.6 km/h 4.8 km/h 93% 0 mm
22:04 18.4 °C 17.4 °C 1009.4 hPa SSW 1.6 km/h 1.6 km/h 94% 0 mm
22:09 18.4 °C 17.4 °C 1009 hPa SSE 3.2 km/h 3.2 km/h 94% 0 mm
22:14 18.4 °C 17.4 °C 1009 hPa Calm   4.8 km/h 94% 0 mm
22:19 18.4 °C 17.4 °C 1009 hPa Calm   1.6 km/h 94% 0 mm
22:24 18.4 °C 17.4 °C 1009 hPa SSW 1.6 km/h 4.8 km/h 94% 0 mm
22:29 18.5 °C 17.5 °C 1009 hPa Calm   6.4 km/h 94% 0 mm
22:34 18.6 °C 17.6 °C 1009 hPa Calm   1.6 km/h 94% 0 mm
22:39 18.6 °C 17.6 °C 1009 hPa Calm   1.6 km/h 94% 0 mm
22:44 18.5 °C 17.5 °C 1009 hPa WNW 1.6 km/h 1.6 km/h 94% 0 mm
22:49 18.5 °C 17.5 °C 1009 hPa NNW 3.2 km/h 3.2 km/h 94% 0 mm
22:54 18.5 °C 17.5 °C 1009 hPa NNW 1.6 km/h 3.2 km/h 94% 0 mm
22:59 18.4 °C 17.4 °C 1009 hPa Calm   1.6 km/h 94% 0 mm
23:04 18.4 °C 17.4 °C 1009 hPa Calm     94% 0 mm
23:09 18.4 °C 17.4 °C 1009 hPa North 1.6 km/h 1.6 km/h 94% 0 mm
23:14 18.4 °C 17.4 °C 1009 hPa Calm     94% 0 mm
23:19 18.4 °C 17.4 °C 1009 hPa North 1.6 km/h 1.6 km/h 94% 0 mm
23:24 18.4 °C 17.4 °C 1009 hPa North 1.6 km/h 1.6 km/h 94% 0 mm
23:29 18.4 °C 17.4 °C 1009 hPa North 1.6 km/h 1.6 km/h 94% 0 mm
23:34 18.3 °C 17.3 °C 1009 hPa NNW 1.6 km/h 1.6 km/h 94% 0 mm
23:39 18.3 °C 17.3 °C 1009 hPa NW 1.6 km/h 3.2 km/h 94% 0 mm
23:44 18.3 °C 17.3 °C 1009 hPa Calm     94% 0 mm
23:49 18.3 °C 17.3 °C 1009.4 hPa SW 4.8 km/h 4.8 km/h 94% 0 mm
23:54 18.3 °C 17.3 °C 1009.4 hPa West 3.2 km/h 6.4 km/h 94% 0 mm
23:59 18.3 °C 17.5 °C 1009 hPa NW 3.2 km/h 3.2 km/h 95% 0 mm
Compliments of Weather Underground